Aviation Digital Data Service (ADDS)

Output produced by METARs form (1136 UTC 28 September 2021)
found at http://www.aviationweather.gov/metar/data/
 
KRWF 281053Z AUTO 16007KT 10SM CLR 11/09 A2989 RMK AO2 SLP120 T01110094
KRWF 281120Z 2812/2912 13006KT P6SM SKC 
     FM281800 16010KT P6SM SKC 
     FM290900 14006KT P6SM SKC
       
KMSP 281053Z 13005KT 10SM CLR 13/11 A2994 RMK AO2 SLP136 T01330106
KMSP 281120Z 2812/2918 14007KT P6SM SKC